Date,TemperatureHighF,TemperatureAvgF,TemperatureLowF,DewpointHighF,DewpointAvgF,DewpointLowF,HumidityHigh,HumidityAvg,HumidityLow,PressureMaxIn,PressureMinIn,WindSpeedMaxMPH,WindSpeedAvgMPH,GustSpeedMaxMPH,PrecipitationSumIn
2014-1-1,80.0,76.3,72.6,71.9,68.6,61.3,85,77,67,30.30,30.13,18,6,19,0.00
2014-1-2,84.6,76.8,68.9,72.0,66.8,61.5,93,73,47,30.13,29.95,19,4,21,0.00
2014-1-3,73.1,64.9,58.0,69.6,54.8,46.0,92,70,58,30.28,29.97,17,5,20,0.00
2014-1-4,74.8,70.9,66.4,68.3,61.7,53.4,86,73,62,30.27,30.15,19,6,19,0.00
2014-1-5,83.0,74.1,68.7,71.8,69.3,66.9,95,85,63,30.16,30.04,19,2,19,0.10
2014-1-6,82.4,71.5,56.1,71.2,62.9,35.1,96,76,37,30.28,30.04,19,4,24,0.00
2014-1-7,57.2,52.6,47.6,50.7,43.3,29.5,88,72,43,30.40,30.28,19,5,20,0.00
2014-1-8,70.8,64.2,51.6,64.5,59.9,48.2,96,86,78,30.41,30.31,24,7,24,0.00
2014-1-9,75.6,72.5,68.0,72.2,68.7,64.0,96,88,80,30.33,30.21,24,9,28,0.00
2014-1-10,80.3,74.7,66.7,72.3,69.7,65.2,96,85,71,30.28,30.15,22,4,26,0.00
2014-1-11,82.9,77.5,72.5,73.2,70.6,68.3,91,80,67,30.21,30.05,21,5,21,0.00
2014-1-12,75.5,70.1,62.5,70.4,61.8,56.7,93,76,56,30.26,30.09,13,3,14,0.00
2014-1-13,81.3,74.8,68.7,69.8,66.0,60.1,84,74,61,30.24,30.12,12,4,15,0.00
2014-1-14,80.8,74.6,68.9,70.8,67.4,64.0,95,79,60,30.12,30.01,17,3,17,0.00
2014-1-15,70.0,64.7,57.9,64.8,58.2,50.0,95,80,55,30.13,30.01,15,4,15,0.00
2014-1-16,59.2,54.9,47.2,54.3,38.9,27.4,87,57,31,30.24,30.03,21,4,22,0.00
2014-1-17,66.3,54.7,42.8,44.6,37.9,32.1,78,54,37,30.29,30.18,10,2,10,0.00
2014-1-18,66.3,56.2,48.1,49.2,40.4,33.0,85,57,32,30.32,30.22,13,2,14,0.00
2014-1-19,68.5,55.0,38.4,48.1,37.8,27.0,82,55,22,30.36,30.23,14,2,18,0.00
2014-1-20,75.2,63.8,53.5,58.1,52.4,46.3,92,69,39,30.28,30.12,15,2,16,0.00
2014-1-21,72.8,65.2,60.0,62.1,58.4,55.8,93,79,57,30.15,29.95,18,5,21,0.00
2014-1-22,62.2,55.4,46.9,60.2,39.2,28.6,94,57,33,30.27,29.97,20,5,22,0.00
2014-1-23,68.5,56.3,42.9,54.8,46.0,33.9,81,69,60,30.39,30.25,12,2,14,0.00
2014-1-24,68.5,61.0,55.3,54.4,52.5,50.6,85,74,58,30.46,30.31,16,3,21,0.00
2014-1-25,74.5,63.6,51.7,60.8,54.9,49.3,92,75,53,30.32,30.13,9,2,10,0.00
2014-1-26,76.8,66.6,55.1,61.5,56.9,52.1,95,73,43,30.19,30.07,8,2,10,0.80
2014-1-27,83.0,71.3,59.7,67.8,62.5,57.8,94,75,45,30.12,30.02,14,2,15,0.00
2014-1-28,81.1,71.1,61.1,69.0,64.2,59.0,95,80,56,30.17,30.05,14,2,14,0.00
2014-1-29,74.8,67.4,63.4,70.6,65.2,62.0,96,92,82,30.17,30.07,12,2,13,0.00
2014-1-30,68.4,65.4,63.7,67.4,64.3,62.6,97,96,93,30.20,30.11,12,1,14,0.00
2014-1-31,82.1,75.0,65.8,73.4,71.0,64.8,97,88,69,30.18,30.09,16,3,16,0.00
2014-2-1,82.5,76.7,73.3,72.6,70.5,68.1,93,82,65,30.23,30.14,16,3,17,0.00
2014-2-2,82.0,77.0,72.6,70.3,68.7,66.9,90,76,63,30.24,30.15,15,4,15,0.00
2014-2-3,81.6,77.3,74.2,71.9,70.3,68.3,88,79,68,30.20,30.11,15,4,15,0.00
2014-2-4,81.5,77.5,73.9,71.5,69.5,67.4,90,77,65,30.23,30.13,16,5,17,0.00
2014-2-5,82.9,75.9,71.4,73.4,70.5,68.2,94,84,66,30.18,30.08,16,3,16,0.00
2014-2-6,79.8,74.3,71.2,73.3,70.7,69.0,95,89,74,30.20,30.11,10,1,12,0.00
2014-2-7,81.1,72.1,64.9,69.8,67.1,62.9,95,85,63,30.23,30.14,10,2,11,0.00
2014-2-8,82.6,72.8,68.0,74.9,68.5,64.8,96,87,64,30.19,30.08,10,1,11,0.00
2014-2-9,76.7,69.0,64.9,66.4,63.5,60.2,96,83,67,30.18,30.08,12,2,14,0.00
2014-2-10,78.2,70.5,63.0,66.8,62.3,60.7,93,76,58,30.18,30.09,13,2,14,0.00
2014-2-11,81.0,74.9,68.8,68.5,65.5,62.6,82,73,59,30.16,30.06,13,4,15,0.00
2014-2-12,82.3,71.8,62.8,69.3,64.7,60.4,96,79,56,30.12,29.90,18,4,26,0.00
2014-2-13,66.8,65.0,64.2,64.7,63.5,0.0,96,95,77,29.93,29.83,13,4,13,0.00
2014-2-24,84.5,78.1,73.5,69.8,67.6,62.2,84,71,49,30.13,30.03,8,1,10,0.10
2014-2-25,84.0,74.7,68.9,71.2,67.9,62.3,95,80,51,30.12,30.00,11,2,13,0.00
2014-2-26,85.4,74.5,65.9,69.8,64.2,56.7,96,74,39,30.05,29.83,20,4,20,0.00
2014-2-27,78.0,71.3,64.4,69.2,63.8,59.1,90,78,54,30.03,29.84,16,4,16,0.10
2014-2-28,72.0,64.7,59.5,62.3,57.3,49.0,96,79,48,30.18,29.97,13,2,15,1.20
2014-3-1,78.3,68.8,58.4,64.0,58.3,53.8,93,71,46,30.25,30.14,14,3,15,0.00
2014-3-2,79.2,73.8,68.7,62.4,59.8,55.8,71,62,48,30.28,30.16,15,3,15,0.00
2014-3-3,82.2,73.1,63.0,64.7,60.9,58.5,89,67,46,30.17,30.06,14,2,18,0.00
2014-3-4,79.2,72.0,63.2,65.5,63.0,58.9,92,74,56,30.16,30.05,13,3,13,0.00
2014-3-5,82.5,73.7,65.7,69.4,66.1,62.8,92,78,54,30.13,30.00,18,3,20,0.40
2014-3-6,82.2,71.6,66.3,73.4,67.5,64.2,96,88,64,30.09,29.84,16,3,19,0.40
2014-3-7,76.8,69.5,59.6,66.6,59.9,50.0,94,73,41,30.11,29.87,21,6,28,0.10
2014-3-8,72.9,62.3,52.7,60.8,54.2,47.0,89,76,50,30.23,30.11,14,3,14,0.10
2014-3-9,77.2,69.5,61.5,66.7,61.3,57.9,96,77,55,30.26,30.17,13,3,14,0.00
2014-3-10,82.3,72.0,64.4,63.4,61.1,57.6,89,70,45,30.20,30.05,13,3,14,0.00
2014-3-11,80.5,71.8,61.0,66.4,61.8,57.6,89,72,53,30.12,29.95,16,4,21,0.00
2014-3-12,84.7,75.9,69.2,70.1,65.6,62.0,88,72,48,29.99,29.83,24,5,24,0.30
2014-3-13,74.2,72.7,70.7,67.7,66.6,62.9,84,81,77,29.95,29.93,15,6,24,0.00
2014-3-22,80.5,77.0,72.6,71.7,69.4,66.5,91,78,67,30.18,30.05,18,5,20,0.70
2014-3-23,87.1,76.4,66.7,71.2,65.8,61.4,93,72,43,30.15,30.02,14,2,20,0.10
2014-3-24,75.3,70.7,65.4,69.7,66.4,59.5,96,86,62,30.13,30.00,16,2,16,0.30
2014-3-25,79.2,70.0,63.6,68.9,63.7,53.5,96,82,62,30.11,29.92,21,6,21,0.40
2014-3-26,67.4,60.9,54.2,53.9,48.0,39.2,81,63,51,30.36,30.11,18,4,21,0.10
2014-3-27,76.0,69.7,59.1,62.5,56.5,50.2,82,63,48,30.40,30.28,20,7,23,0.10
2014-3-28,80.8,75.8,72.5,68.8,63.3,57.4,79,66,55,30.31,30.14,20,7,25,0.00
2014-3-29,82.5,76.3,69.3,73.1,69.9,63.2,94,81,69,30.19,30.00,27,5,31,0.00
2014-3-30,78.9,70.9,62.7,66.4,53.7,30.0,92,60,18,30.17,29.99,15,4,31,0.00
2014-3-31,76.9,67.5,57.8,62.7,56.8,49.2,83,69,50,30.24,30.15,13,3,18,0.00
2014-4-1,78.4,70.2,59.9,64.3,59.0,56.7,95,70,49,30.27,30.19,13,3,16,0.00
2014-4-2,78.9,72.5,64.0,61.0,58.5,54.6,81,62,46,30.29,30.21,13,4,15,0.00
2014-4-3,80.5,75.3,71.0,64.0,61.9,59.4,72,63,52,30.26,30.15,15,4,16,0.00
2014-4-4,74.0,73.6,73.3,63.1,62.8,62.3,70,69,68,30.18,30.13,8,3,8,0.00
2014-4-7,85.9,81.5,77.7,74.3,70.9,67.6,88,71,56,30.06,29.95,20,6,21,0.00
2014-4-8,89.6,77.7,67.2,74.9,69.2,60.9,91,77,48,30.02,29.82,29,7,29,0.80
2014-4-9,68.4,68.1,67.3,64.5,62.8,60.8,88,83,80,29.99,29.96,15,8,29,0.00
2014-4-10,72.8,71.6,70.7,57.9,54.0,50.3,62,54,47,30.34,30.29,11,4,12,0.00
2014-4-11,78.3,73.6,70.6,68.1,63.7,57.7,88,72,62,30.33,30.21,16,5,18,1.10
2014-4-12,79.8,75.4,70.2,65.5,63.4,59.7,78,67,52,30.28,30.17,18,6,19,0.00
2014-4-13,80.0,75.9,73.3,70.8,67.6,64.2,85,76,66,30.19,30.09,20,9,22,0.00
2014-4-14,85.4,79.0,74.9,72.2,70.6,67.9,87,76,57,30.10,29.98,15,5,22,0.00
2014-4-15,86.3,78.3,72.9,74.4,71.4,69.1,92,80,58,30.02,29.91,17,4,22,3.30
2014-4-16,77.8,73.8,69.0,72.2,68.1,63.5,92,83,70,30.17,30.00,19,5,22,0.70
2014-4-17,81.5,77.1,73.5,72.2,70.2,66.0,90,80,64,30.23,30.13,22,8,23,0.90
2014-4-18,83.8,78.6,72.9,73.3,70.3,66.5,93,76,60,30.19,30.03,17,6,23,0.30
2014-4-19,87.8,77.8,67.9,73.6,67.8,59.2,93,73,48,30.06,29.95,19,6,20,0.20
2014-4-20,76.8,69.5,65.3,63.7,59.8,55.5,81,72,57,30.14,30.03,15,4,20,0.00
2014-4-21,79.2,69.9,61.0,65.2,61.9,58.8,92,77,54,30.14,30.01,14,4,17,0.00
2014-4-22,82.5,74.3,66.4,67.9,65.2,60.8,91,74,56,30.06,29.93,10,2,17,0.00
2014-4-23,84.1,75.2,66.8,68.4,64.4,61.3,85,70,48,30.04,29.96,12,3,12,0.00
2014-4-24,84.6,77.4,67.7,69.3,66.3,61.1,85,69,46,30.11,30.01,15,3,15,0.00
2014-4-25,90.2,78.6,68.9,71.9,66.1,56.7,88,68,33,30.12,29.99,16,3,19,0.00
2014-4-26,84.5,78.4,71.2,71.8,68.5,61.8,89,73,50,30.10,30.01,16,3,17,0.00
2014-4-27,88.1,80.6,73.0,71.7,67.7,60.9,88,66,43,30.12,24.32,14,4,15,14.00
2014-4-28,87.1,81.4,77.8,72.7,70.0,64.7,80,69,52,30.08,30.00,14,5,16,0.00
2014-4-29,86.6,81.8,78.5,75.9,73.1,70.2,86,76,62,30.12,29.97,18,5,21,0.00
2014-4-30,87.5,81.9,79.0,75.4,73.2,68.4,87,75,55,30.16,30.05,17,5,21,24.30
2014-5-1,88.0,81.1,75.0,75.3,71.6,66.9,85,73,54,30.14,30.03,18,5,20,0.10
2014-5-2,88.0,81.0,76.1,72.7,70.3,65.0,84,71,50,30.08,29.95,18,5,20,0.00
2014-5-3,76.5,75.4,74.9,71.4,70.9,70.1,88,86,82,30.06,30.02,4,0,5,0.00
2014-5-8,84.5,81.1,78.9,70.4,69.2,67.6,75,68,58,30.26,30.22,16,7,18,0.00
2014-5-9,85.7,80.6,77.2,70.0,67.4,64.8,74,65,53,30.28,30.18,17,7,21,0.00
2014-5-10,84.3,80.0,77.3,70.4,68.4,65.7,74,68,60,30.25,30.15,17,7,21,0.00
2014-5-11,85.3,80.3,77.5,70.2,67.5,62.9,76,65,52,30.24,30.15,15,6,20,0.00
2014-5-12,84.6,80.4,77.7,71.0,68.7,66.2,75,68,57,30.22,30.14,21,8,22,0.00
2014-5-13,85.1,79.9,75.6,75.8,71.7,66.6,91,76,64,30.16,30.08,21,8,22,1.40
2014-5-14,85.7,80.9,72.9,74.5,71.9,68.4,92,75,60,30.15,30.05,19,7,23,0.70
2014-5-15,83.8,77.2,71.9,76.3,73.4,69.9,95,88,71,30.13,30.00,16,3,23,0.50
2014-5-16,76.7,73.1,68.8,72.6,65.1,50.8,94,77,49,30.18,30.03,15,3,20,0.70
2014-5-17,81.6,74.7,66.4,63.8,59.2,54.7,77,59,44,30.20,30.13,19,6,22,0.20
2014-5-18,81.1,77.0,73.6,64.7,61.5,57.1,66,59,52,30.21,30.16,19,7,23,0.10
2014-5-19,82.3,77.8,74.7,65.6,62.7,59.2,68,60,52,30.24,30.16,20,8,23,0.30
2014-5-20,82.5,78.1,74.9,65.7,63.4,59.8,69,61,52,30.27,30.20,17,6,18,0.10
2014-5-21,82.5,77.7,74.5,65.3,62.0,59.1,67,59,49,30.27,30.20,16,6,18,0.00
2014-5-22,84.5,77.1,67.9,66.9,63.5,57.9,87,64,43,30.25,30.14,11,2,17,0.00
2014-5-23,90.6,80.1,70.3,69.9,66.9,62.9,87,66,42,30.19,30.10,12,3,14,0.00
2014-5-24,90.6,81.1,73.2,71.7,69.1,65.3,85,68,46,30.18,30.10,13,3,14,0.00
2014-5-25,87.1,80.6,73.6,73.0,70.3,66.8,88,72,54,30.22,30.11,13,3,13,0.00
2014-5-26,86.3,81.5,77.5,72.8,70.9,67.8,82,71,57,30.26,30.16,15,4,16,0.00
2014-5-27,85.4,80.5,77.9,73.2,70.9,66.5,80,73,63,30.23,30.13,14,5,16,0.00
2014-5-28,86.0,80.8,74.7,72.9,71.1,68.0,84,73,58,30.17,30.08,15,4,16,0.00
2014-5-29,80.8,79.3,78.5,73.0,72.0,70.6,81,79,72,30.12,30.05,9,3,10,0.00
2014-7-9,90.7,78.4,74.0,76.1,73.2,71.1,95,85,55,30.21,30.15,13,2,20,0.00
2014-7-10,89.0,78.8,73.4,78.2,72.8,70.0,95,83,58,30.22,30.15,13,2,14,0.00
2014-7-11,89.7,83.9,76.4,75.3,73.6,71.8,90,72,57,30.23,30.15,16,4,16,0.00
2014-7-12,89.8,84.2,78.2,75.8,73.9,71.9,86,72,57,30.23,30.16,14,4,15,0.00
2014-7-13,90.7,84.6,80.7,75.6,73.7,70.0,81,70,54,30.19,30.13,16,5,20,0.00
2014-7-14,90.6,84.6,79.5,75.2,72.6,69.2,84,68,52,30.18,30.11,12,2,20,0.00
2014-7-15,87.3,79.2,74.0,75.9,72.3,66.8,92,80,62,30.16,30.05,18,1,18,0.00
2014-7-16,90.8,79.2,75.9,75.2,73.4,64.9,92,83,48,30.11,30.03,18,2,23,0.00
2014-7-17,82.5,78.3,73.4,76.3,73.7,71.9,96,86,75,30.13,30.04,8,1,36,0.00
2014-7-18,90.3,81.8,76.2,76.3,74.2,70.0,94,79,53,30.18,30.08,14,2,36,0.00
2014-7-19,91.8,84.0,76.4,78.3,74.1,70.7,93,74,55,30.17,30.09,12,3,16,0.00
2014-7-20,90.8,84.9,79.9,75.9,73.2,69.3,83,69,52,30.15,30.08,13,3,13,0.00
2014-7-21,90.0,82.7,78.8,76.6,74.0,70.9,85,75,60,30.14,30.08,16,2,20,0.00
2014-7-22,90.6,82.3,77.3,77.2,74.6,71.9,89,78,56,30.16,30.07,11,1,20,0.00
2014-7-23,92.2,82.8,76.5,77.7,74.9,69.9,92,78,50,30.19,30.10,18,2,18,0.00
2014-7-24,91.9,83.5,77.1,77.0,73.3,69.4,89,72,50,30.15,30.07,13,2,18,4.20
2014-7-25,91.1,84.5,77.2,76.4,74.1,70.9,89,72,54,30.18,30.09,14,2,15,0.00
2014-7-26,93.0,83.3,78.8,77.9,74.6,70.6,89,76,50,30.20,30.12,12,1,15,0.00
2014-7-27,92.8,84.0,77.8,76.7,74.0,69.4,88,73,48,30.20,30.12,14,2,15,0.00
2014-7-28,95.1,86.7,79.2,76.3,72.1,63.2,88,65,36,30.17,30.07,15,3,16,0.00
2014-7-29,94.2,84.9,79.4,76.2,73.7,68.2,87,70,44,30.11,30.03,15,3,16,36.30
2014-7-30,92.6,83.4,78.9,76.3,74.0,70.7,88,74,50,30.08,30.00,14,3,18,0.00
2014-7-31,92.3,81.4,74.0,76.1,74.2,70.6,92,80,52,30.10,30.02,18,2,21,0.40
2014-8-1,91.5,85.2,78.8,76.5,74.5,71.5,91,71,53,30.09,30.00,15,3,15,0.00
2014-8-2,90.1,84.4,79.8,77.1,74.9,72.5,88,74,57,30.07,29.98,13,3,14,0.00
2014-8-3,89.4,79.9,73.0,78.1,74.3,70.6,94,83,61,30.04,29.95,11,1,16,0.00
2014-8-4,88.7,76.9,73.9,76.8,73.6,70.8,96,90,60,30.11,29.96,18,2,22,0.00
2014-8-5,91.0,81.6,75.3,75.9,73.7,71.1,95,78,53,30.15,30.05,21,2,22,0.00
2014-8-6,91.3,83.8,76.7,77.0,74.3,71.4,91,74,55,30.15,30.07,12,2,13,0.00
2014-8-7,92.4,83.6,74.3,76.4,73.7,69.7,91,73,50,30.11,30.02,29,2,29,0.00
2014-8-8,92.3,83.1,74.6,77.5,74.3,70.1,93,76,51,30.14,30.06,14,2,15,0.00
2014-8-9,93.7,84.1,79.8,76.4,73.9,69.2,87,72,48,30.17,30.10,12,2,14,0.00
2014-8-10,94.4,83.9,74.2,75.9,73.3,64.3,91,72,38,30.17,30.08,14,2,18,0.00
2014-8-11,92.8,83.6,75.4,75.9,72.5,67.6,93,71,47,30.16,30.07,12,2,15,0.00
2014-8-12,92.4,83.2,77.3,75.9,72.2,66.2,85,71,44,30.13,30.05,16,2,17,0.00
2014-8-13,92.7,83.1,75.7,77.5,74.0,68.8,95,76,52,30.13,30.06,24,2,27,0.00
2014-8-14,92.8,81.3,77.1,78.1,75.5,71.2,94,84,53,30.15,30.06,13,2,27,0.00
2014-8-15,91.3,78.8,74.1,77.9,74.6,70.8,95,88,55,30.16,30.06,18,1,18,0.00
2014-8-16,93.1,80.0,73.2,79.1,74.1,69.6,95,84,50,30.24,30.10,22,2,23,0.00
2014-8-17,91.8,82.8,75.5,82.4,75.0,70.2,96,79,58,30.21,30.13,14,2,15,0.00
2014-8-18,92.9,84.8,76.0,78.2,74.2,69.9,93,72,49,30.18,30.06,14,2,14,0.00
2014-8-19,93.8,86.1,78.3,77.6,73.8,68.5,89,68,45,30.13,30.04,12,2,13,0.00
2014-8-20,93.8,85.7,78.5,76.8,74.4,70.8,87,70,53,30.18,30.08,13,2,14,0.00
2014-8-21,91.8,85.7,79.2,77.7,74.8,70.4,87,71,50,30.20,30.12,14,2,14,0.00
2014-8-22,93.1,85.8,79.9,77.2,74.2,70.9,86,69,50,30.20,30.06,12,2,14,52.95
2014-8-23,92.2,85.3,80.0,77.0,74.1,69.2,87,70,48,30.09,29.95,15,3,16,0.00
2014-8-24,92.3,85.4,78.9,76.6,73.2,65.3,88,68,43,29.97,29.83,13,2,15,5.88
2014-8-25,89.7,83.6,78.8,79.0,75.1,69.5,90,76,63,29.89,29.81,21,6,23,0.50
2014-8-26,89.0,84.8,82.3,72.8,70.5,66.7,71,63,51,30.00,29.86,19,7,20,0.20
2014-8-27,89.1,84.3,78.2,74.0,71.2,66.2,78,65,53,30.08,29.96,15,4,20,0.00
2014-8-28,89.2,82.9,78.7,77.5,73.8,69.3,94,74,61,30.12,30.03,16,3,18,0.30
2014-8-29,91.8,83.9,78.2,78.8,75.4,70.5,89,76,53,30.20,30.08,16,2,16,4.80
2014-8-30,90.5,86.0,82.0,77.5,75.4,70.6,80,71,58,30.21,30.13,15,5,17,11.40
2014-8-31,90.9,85.7,80.2,76.0,74.3,71.2,82,69,57,30.21,30.14,15,4,16,21.44
2014-9-1,90.7,85.4,80.9,75.7,73.7,71.2,80,68,58,30.20,30.12,13,4,16,0.00
2014-9-2,89.4,84.3,79.1,74.5,72.4,67.2,83,68,50,30.18,30.07,16,4,16,0.00
2014-9-3,87.5,81.6,76.8,75.5,72.5,67.9,89,75,54,30.14,30.05,22,2,23,0.20
2014-9-4,87.2,79.3,72.0,76.8,73.4,69.4,94,82,64,30.20,30.10,18,1,23,0.00
2014-9-5,90.5,82.9,76.8,79.6,75.2,71.6,95,79,60,30.20,30.11,14,2,15,0.00
2014-9-6,87.6,80.4,77.3,78.8,76.0,70.8,94,87,66,30.15,30.05,16,1,16,13.20
2014-9-7,89.4,82.5,77.9,77.7,73.8,0.0,92,76,53,30.12,30.04,15,2,16,0.00
2014-9-8,90.2,82.5,74.9,78.2,73.0,68.8,95,74,54,30.15,30.07,16,3,16,0.00
2014-9-9,89.3,84.1,80.2,74.6,72.2,69.6,78,68,54,30.15,30.06,16,4,17,0.00
2014-9-10,88.5,83.5,80.0,75.2,72.4,68.6,79,70,56,30.11,30.04,15,5,16,0.00
2014-9-11,84.5,78.4,75.1,76.3,73.7,71.0,95,86,66,30.10,30.01,11,1,11,0.00
2014-9-12,88.4,80.4,73.1,74.5,72.0,66.3,96,77,54,30.10,29.98,16,4,18,0.00
2014-9-13,89.0,79.4,74.0,75.8,72.5,68.6,93,80,57,30.18,30.06,21,3,22,0.00
2014-9-14,90.9,79.2,72.2,74.2,70.8,8.0,95,77,50,30.23,30.12,20,2,30,0.40
2014-9-15,89.0,81.7,74.3,76.4,72.7,69.6,91,75,56,30.24,30.15,12,2,30,0.00
2014-9-16,89.4,81.5,77.7,76.5,73.7,65.0,90,78,49,30.20,30.05,11,1,12,0.00
2014-9-17,89.6,79.9,74.2,73.8,71.0,66.3,93,76,48,30.09,29.96,18,2,20,0.00
2014-9-18,87.2,79.5,75.0,74.7,72.9,70.6,93,81,63,30.03,29.94,13,2,20,0.00
2014-9-19,86.8,77.4,73.5,77.7,74.1,69.8,95,90,63,30.05,29.97,19,1,19,0.10
2014-9-20,87.8,78.8,74.4,76.6,73.0,69.3,96,83,56,30.05,29.94,18,2,20,0.00
2014-9-21,89.7,78.7,74.1,74.9,73.2,68.4,95,84,52,30.13,30.01,12,2,20,0.00
2014-9-22,89.0,79.1,73.2,77.7,73.5,71.8,96,84,58,30.14,30.02,10,2,18,0.00
2014-9-23,85.8,80.1,74.6,74.5,72.1,68.7,93,77,61,30.12,30.01,15,3,25,0.00
2014-9-24,86.8,80.4,73.4,75.8,73.3,70.5,95,80,60,30.13,30.05,13,2,25,0.10
2014-9-25,87.3,80.6,77.1,78.1,75.0,72.1,94,84,68,30.14,30.05,14,3,17,0.90
2014-9-26,87.9,79.8,74.7,77.3,75.1,72.9,95,86,66,30.09,30.00,13,2,17,0.60
2014-9-27,88.8,83.9,78.4,76.2,74.5,66.5,84,74,62,30.08,30.00,15,5,15,1.40
2014-9-28,88.7,83.4,78.0,75.5,74.2,71.7,84,74,62,30.08,29.99,14,4,15,1.60
2014-9-29,89.8,81.4,74.6,76.3,73.6,69.8,95,78,54,30.03,29.89,15,2,15,0.30
2014-9-30,89.9,78.8,74.8,78.5,74.0,70.1,96,86,53,29.96,29.87,17,2,19,0.10
2014-10-1,89.4,78.1,74.9,78.6,74.3,71.0,96,88,60,30.07,29.93,22,2,25,2.90
2014-10-2,91.8,82.0,75.7,78.0,73.8,67.3,95,78,46,30.12,30.02,14,3,25,2.10
2014-10-3,89.6,82.6,76.4,77.2,74.5,73.1,91,77,61,30.12,30.00,11,2,12,0.60
2014-10-4,88.2,80.8,75.4,76.9,73.0,68.9,95,78,55,30.06,29.89,16,4,18,0.00
2014-10-5,84.3,74.6,65.6,68.8,61.9,23.1,81,66,44,30.05,29.97,14,4,15,0.00
2014-10-6,83.4,79.8,78.4,68.7,66.5,64.4,71,64,54,30.16,30.08,12,4,15,0.00
2014-10-7,86.2,81.1,77.9,73.8,71.6,68.6,83,73,63,30.18,30.09,12,3,15,0.00
2014-10-8,86.7,81.2,76.4,74.9,71.2,64.3,89,72,55,30.20,30.10,12,3,16,0.00
2014-10-9,86.1,81.7,75.5,72.2,69.9,66.7,82,68,57,30.16,30.07,14,5,16,37.35
2014-10-10,86.6,82.2,80.0,71.8,70.2,67.0,75,67,54,30.13,30.04,18,6,19,0.00
2014-10-11,86.9,82.3,78.9,72.9,70.0,66.4,81,67,52,30.11,30.03,13,5,14,0.00
2014-10-12,87.4,82.1,78.8,71.8,70.3,68.4,75,68,56,30.15,30.06,13,5,15,0.00
2014-10-13,87.3,82.8,80.1,73.3,70.7,67.9,74,67,58,30.17,30.09,18,7,21,0.00
2014-10-14,88.0,83.2,80.0,75.3,73.5,70.3,80,73,61,30.12,30.01,18,5,18,0.00
2014-10-15,88.6,79.0,74.6,78.5,73.9,70.2,94,85,60,30.09,29.96,10,1,12,0.40
2014-10-16,83.5,75.4,68.0,74.0,63.7,0.0,94,69,44,30.06,29.95,15,3,15,0.10
2014-10-17,83.1,73.6,65.0,64.7,59.3,45.7,82,63,31,30.07,29.99,10,2,15,0.00
2014-10-18,85.5,75.0,65.8,67.1,63.9,59.4,92,71,43,30.08,29.99,10,1,10,0.00
2014-10-19,84.8,76.6,67.7,67.2,65.3,62.7,91,70,50,30.12,30.04,11,2,11,0.00
2014-10-20,86.5,80.2,73.7,68.3,65.0,60.1,78,61,43,30.12,30.02,11,2,11,0.00
2014-10-21,83.0,75.0,70.4,73.4,70.2,67.1,96,86,65,30.06,29.99,18,1,18,0.10
2014-10-22,82.6,76.0,70.5,76.2,70.9,69.5,97,85,68,30.06,29.97,9,1,18,0.10
2014-10-23,78.8,76.3,72.1,71.9,67.5,63.5,96,75,63,30.04,29.20,18,5,18,0.00
2014-10-24,79.5,77.5,76.5,68.5,66.9,64.4,74,70,65,30.02,29.91,18,7,20,0.00
2014-10-25,81.5,74.6,66.2,65.9,63.6,57.5,85,70,45,30.04,29.94,16,3,16,0.00
2014-10-26,81.2,73.3,66.3,65.4,62.0,50.3,89,70,36,30.12,29.98,14,2,14,3.12
2014-10-27,82.3,73.5,63.7,67.4,63.3,60.3,94,72,49,30.18,30.08,13,2,13,0.00
2014-10-28,83.6,78.6,72.5,68.2,65.9,62.2,72,65,57,30.23,30.15,15,5,15,0.00
2014-10-29,85.2,79.0,72.0,69.9,65.9,37.8,83,65,49,30.19,30.06,12,3,12,0.00
2014-10-30,84.0,75.8,68.5,68.9,66.0,57.6,91,73,42,30.08,29.95,12,2,12,0.00
2014-10-31,83.8,74.6,67.2,69.0,65.5,52.6,95,74,54,29.98,29.84,25,3,25,0.00
2014-11-1,73.4,64.3,55.1,59.4,49.8,36.6,90,61,38,30.23,29.97,25,6,25,0.00
2014-11-2,69.5,57.5,50.2,52.4,43.8,30.1,71,61,40,30.71,30.22,16,4,25,42.44
2014-11-3,75.6,67.7,57.1,58.6,53.8,46.3,75,62,50,30.37,30.29,20,6,20,0.00
2014-11-4,78.3,74.7,71.9,62.6,58.8,52.8,65,58,48,30.35,30.24,22,8,22,0.00
2014-11-5,80.1,76.6,74.3,67.8,64.4,61.8,80,66,58,30.29,30.17,18,8,19,0.00
2014-11-6,82.2,75.9,68.4,65.2,62.9,56.4,81,65,44,30.20,30.05,16,3,17,0.02
2014-11-7,81.5,72.3,65.8,67.2,64.5,61.8,88,77,54,30.07,29.97,12,2,12,0.00
2014-11-8,81.6,73.4,64.9,69.6,66.8,62.7,93,80,64,30.03,29.92,13,3,15,0.00
2014-11-9,71.2,67.8,65.2,69.2,66.1,64.0,96,94,87,30.00,29.90,10,1,10,0.30
2014-11-10,76.8,68.2,64.1,67.2,64.3,61.6,97,88,66,30.02,29.94,13,2,13,0.10
2014-11-11,78.1,69.3,60.7,66.1,60.1,54.2,91,74,50,30.03,29.94,14,4,18,3.14
2014-11-12,82.8,70.8,61.6,66.3,62.2,56.2,91,75,53,30.10,30.02,13,3,13,0.00
2014-11-13,82.8,72.9,65.2,69.8,64.8,62.9,94,77,54,30.12,30.02,9,2,14,0.00
2014-11-14,80.8,69.8,61.2,65.8,62.5,55.9,96,79,43,30.18,30.05,11,2,11,0.00
2014-11-15,79.5,72.2,62.4,67.0,63.7,60.6,94,76,62,30.27,30.15,13,3,13,0.00
2014-11-16,82.0,77.1,73.2,71.2,67.9,62.3,82,74,63,30.28,30.13,14,4,14,0.00
2014-11-17,86.8,79.1,72.5,75.6,71.9,66.3,94,79,60,30.13,29.99,16,4,16,0.20
2014-11-18,73.5,65.5,56.4,70.0,62.0,53.6,94,89,81,30.29,30.03,15,3,15,0.00
2014-11-19,68.1,57.0,53.5,60.1,54.5,52.4,96,92,72,30.28,30.23,11,3,11,0.00
2014-11-20,76.1,72.9,62.9,62.2,60.0,56.1,88,64,53,30.28,30.18,18,6,18,0.00
2014-11-21,73.5,71.2,67.1,68.5,64.9,61.1,94,81,67,30.29,30.20,27,8,27,0.00
2014-11-22,78.7,75.6,72.5,73.1,68.5,65.4,95,79,71,30.29,30.15,26,11,29,1.85
2014-11-23,83.3,79.1,74.6,75.1,74.5,72.7,94,86,75,30.15,30.00,17,4,19,0.00
2014-11-24,86.7,80.7,77.1,77.3,75.8,73.6,93,86,68,30.13,30.01,16,4,16,0.00
2014-11-25,84.3,79.9,78.3,76.7,74.6,71.5,93,84,70,30.12,29.99,21,5,21,0.00
2014-11-26,79.4,67.7,56.3,75.7,62.9,47.4,95,85,64,30.27,29.97,22,5,22,0.00
2014-11-27,73.9,61.8,53.3,53.3,47.4,37.7,87,62,35,30.35,30.21,17,3,17,0.00
2014-11-28,69.2,59.4,50.7,54.6,50.2,18.3,85,72,58,30.32,30.24,16,4,16,0.00
2014-11-29,74.8,60.5,53.7,58.7,53.3,50.5,91,79,52,30.34,30.26,16,4,16,0.00
2014-11-30,74.0,73.8,73.7,61.1,60.7,60.2,64,64,63,30.33,30.32,12,8,15,0.00
2014-12-31,74.0,72.5,71.3,71.3,70.1,68.9,96,92,86,30.26,30.19,12,4,12,0.60
2015-1-1,76.0,73.1,70.8,71.7,70.4,67.8,96,91,79,30.29,30.20,14,2,14,0.10
2015-1-2,82.0,76.9,73.2,71.9,71.0,68.5,92,82,66,30.32,30.24,17,3,17,0.00